sensor_id;sensor_type;location;lat;lon;timestamp;temperature;humidity
71668;DHT22;59504;54.806;9.640;2023-02-26T00:01:32;0.60;60.90
71668;DHT22;59504;54.806;9.640;2023-02-26T00:03:35;0.60;60.30
71668;DHT22;59504;54.806;9.640;2023-02-26T00:05:36;0.70;59.90
71668;DHT22;59504;54.806;9.640;2023-02-26T00:07:37;0.60;59.50
71668;DHT22;59504;54.806;9.640;2023-02-26T00:09:38;0.60;59.30
71668;DHT22;59504;54.806;9.640;2023-02-26T00:11:48;0.70;59.30
71668;DHT22;59504;54.806;9.640;2023-02-26T00:13:49;0.60;59.00
71668;DHT22;59504;54.806;9.640;2023-02-26T00:15:59;0.60;58.80
71668;DHT22;59504;54.806;9.640;2023-02-26T00:18:06;0.60;58.60
71668;DHT22;59504;54.806;9.640;2023-02-26T00:20:08;0.60;58.20
71668;DHT22;59504;54.806;9.640;2023-02-26T00:22:10;0.70;58.50
71668;DHT22;59504;54.806;9.640;2023-02-26T00:24:18;0.60;58.30
71668;DHT22;59504;54.806;9.640;2023-02-26T00:26:20;0.70;58.50
71668;DHT22;59504;54.806;9.640;2023-02-26T00:28:32;0.60;58.40
71668;DHT22;59504;54.806;9.640;2023-02-26T00:30:36;0.70;58.40
71668;DHT22;59504;54.806;9.640;2023-02-26T00:32:55;0.70;58.30
71668;DHT22;59504;54.806;9.640;2023-02-26T00:34:59;0.60;58.40
71668;DHT22;59504;54.806;9.640;2023-02-26T00:41:51;0.60;58.00
71668;DHT22;59504;54.806;9.640;2023-02-26T00:44:12;0.60;58.00
71668;DHT22;59504;54.806;9.640;2023-02-26T00:51:55;0.60;58.00
71668;DHT22;59504;54.806;9.640;2023-02-26T00:54:21;0.60;57.90
71668;DHT22;59504;54.806;9.640;2023-02-26T00:56:45;0.60;57.90
71668;DHT22;59504;54.806;9.640;2023-02-26T00:59:09;0.60;58.00
71668;DHT22;59504;54.806;9.640;2023-02-26T01:01:33;0.60;58.00
71668;DHT22;59504;54.806;9.640;2023-02-26T01:03:54;0.60;58.10
71668;DHT22;59504;54.806;9.640;2023-02-26T01:06:20;0.60;58.00
71668;DHT22;59504;54.806;9.640;2023-02-26T01:09:04;0.60;58.10
71668;DHT22;59504;54.806;9.640;2023-02-26T01:11:27;0.60;58.00
71668;DHT22;59504;54.806;9.640;2023-02-26T01:13:48;0.60;58.10
71668;DHT22;59504;54.806;9.640;2023-02-26T01:16:15;0.60;58.20
71668;DHT22;59504;54.806;9.640;2023-02-26T01:18:32;0.60;58.00
71668;DHT22;59504;54.806;9.640;2023-02-26T01:20:52;0.70;58.20
71668;DHT22;59504;54.806;9.640;2023-02-26T01:22:59;0.70;58.20
71668;DHT22;59504;54.806;9.640;2023-02-26T01:25:04;0.70;58.20
71668;DHT22;59504;54.806;9.640;2023-02-26T01:27:33;0.70;58.00
71668;DHT22;59504;54.806;9.640;2023-02-26T01:29:37;0.70;58.00
71668;DHT22;59504;54.806;9.640;2023-02-26T01:33:57;0.70;58.20
71668;DHT22;59504;54.806;9.640;2023-02-26T01:36:07;0.80;58.30
71668;DHT22;59504;54.806;9.640;2023-02-26T01:38:19;0.70;58.50
71668;DHT22;59504;54.806;9.640;2023-02-26T01:42:56;0.70;58.30
71668;DHT22;59504;54.806;9.640;2023-02-26T01:45:28;0.80;58.40
71668;DHT22;59504;54.806;9.640;2023-02-26T01:48:03;0.70;58.30
71668;DHT22;59504;54.806;9.640;2023-02-26T01:50:25;0.70;58.20
71668;DHT22;59504;54.806;9.640;2023-02-26T01:55:17;0.70;58.30
71668;DHT22;59504;54.806;9.640;2023-02-26T01:57:38;0.60;58.20
71668;DHT22;59504;54.806;9.640;2023-02-26T02:00:02;0.70;58.30
71668;DHT22;59504;54.806;9.640;2023-02-26T02:02:26;0.70;58.30
71668;DHT22;59504;54.806;9.640;2023-02-26T02:04:46;0.60;58.40
71668;DHT22;59504;54.806;9.640;2023-02-26T02:06:47;0.60;58.40
71668;DHT22;59504;54.806;9.640;2023-02-26T02:08:48;0.50;58.40
71668;DHT22;59504;54.806;9.640;2023-02-26T02:10:50;0.50;58.60
71668;DHT22;59504;54.806;9.640;2023-02-26T02:16:07;0.50;58.70
71668;DHT22;59504;54.806;9.640;2023-02-26T02:19:05;0.50;58.70
71668;DHT22;59504;54.806;9.640;2023-02-26T02:30:24;0.50;59.10
71668;DHT22;59504;54.806;9.640;2023-02-26T02:32:59;0.40;59.00
71668;DHT22;59504;54.806;9.640;2023-02-26T02:35:51;0.50;59.10
71668;DHT22;59504;54.806;9.640;2023-02-26T02:40:53;0.40;59.20
71668;DHT22;59504;54.806;9.640;2023-02-26T02:43:05;0.40;59.20
71668;DHT22;59504;54.806;9.640;2023-02-26T02:45:24;0.40;59.30
71668;DHT22;59504;54.806;9.640;2023-02-26T02:47:28;0.30;59.40
71668;DHT22;59504;54.806;9.640;2023-02-26T02:49:34;0.30;59.40
71668;DHT22;59504;54.806;9.640;2023-02-26T02:54:07;0.20;59.70
71668;DHT22;59504;54.806;9.640;2023-02-26T02:56:30;0.30;59.80
71668;DHT22;59504;54.806;9.640;2023-02-26T02:58:37;0.20;59.70
71668;DHT22;59504;54.806;9.640;2023-02-26T03:00:44;0.20;59.80
71668;DHT22;59504;54.806;9.640;2023-02-26T03:05:02;0.20;60.00
71668;DHT22;59504;54.806;9.640;2023-02-26T03:07:06;0.10;60.10
71668;DHT22;59504;54.806;9.640;2023-02-26T03:09:08;0.20;60.20
71668;DHT22;59504;54.806;9.640;2023-02-26T03:11:16;0.10;60.20
71668;DHT22;59504;54.806;9.640;2023-02-26T03:13:20;0.10;60.40
71668;DHT22;59504;54.806;9.640;2023-02-26T03:18:46;0.00;60.60
71668;DHT22;59504;54.806;9.640;2023-02-26T03:21:23;0.00;60.40
71668;DHT22;59504;54.806;9.640;2023-02-26T03:24:11;0.00;60.50
71668;DHT22;59504;54.806;9.640;2023-02-26T03:26:39;0.00;60.60
71668;DHT22;59504;54.806;9.640;2023-02-26T03:29:09;0.00;60.70
71668;DHT22;59504;54.806;9.640;2023-02-26T03:31:51;-0.10;60.70
71668;DHT22;59504;54.806;9.640;2023-02-26T03:34:47;-0.10;60.70
71668;DHT22;59504;54.806;9.640;2023-02-26T03:37:24;-0.10;61.00
71668;DHT22;59504;54.806;9.640;2023-02-26T03:39:50;-0.10;61.10
71668;DHT22;59504;54.806;9.640;2023-02-26T03:44:58;-0.20;61.20
71668;DHT22;59504;54.806;9.640;2023-02-26T03:47:21;-0.20;61.40
71668;DHT22;59504;54.806;9.640;2023-02-26T03:50:00;-0.20;61.40
71668;DHT22;59504;54.806;9.640;2023-02-26T03:52:24;-0.30;61.40
71668;DHT22;59504;54.806;9.640;2023-02-26T03:54:36;-0.20;61.60
71668;DHT22;59504;54.806;9.640;2023-02-26T03:56:46;-0.20;61.70
71668;DHT22;59504;54.806;9.640;2023-02-26T03:58:48;-0.30;61.80
71668;DHT22;59504;54.806;9.640;2023-02-26T04:00:55;-0.40;62.00
71668;DHT22;59504;54.806;9.640;2023-02-26T04:03:01;-0.30;62.00
71668;DHT22;59504;54.806;9.640;2023-02-26T04:05:11;-0.30;62.10
71668;DHT22;59504;54.806;9.640;2023-02-26T04:07:16;-0.40;62.10
71668;DHT22;59504;54.806;9.640;2023-02-26T04:09:20;-0.30;62.30
71668;DHT22;59504;54.806;9.640;2023-02-26T04:11:26;-0.40;62.40
71668;DHT22;59504;54.806;9.640;2023-02-26T04:13:50;-0.50;62.50
71668;DHT22;59504;54.806;9.640;2023-02-26T04:15:51;-0.50;62.40
71668;DHT22;59504;54.806;9.640;2023-02-26T04:17:52;-0.40;62.50
71668;DHT22;59504;54.806;9.640;2023-02-26T04:20:12;-0.40;62.60
71668;DHT22;59504;54.806;9.640;2023-02-26T04:22:15;-0.40;63.00
71668;DHT22;59504;54.806;9.640;2023-02-26T04:24:38;-0.50;63.00
71668;DHT22;59504;54.806;9.640;2023-02-26T04:27:02;-0.40;63.20
71668;DHT22;59504;54.806;9.640;2023-02-26T04:29:23;-0.40;63.40
71668;DHT22;59504;54.806;9.640;2023-02-26T04:31:43;-0.50;63.00
71668;DHT22;59504;54.806;9.640;2023-02-26T04:34:04;-0.40;63.40
71668;DHT22;59504;54.806;9.640;2023-02-26T04:36:31;-0.50;63.40
71668;DHT22;59504;54.806;9.640;2023-02-26T04:38:52;-0.50;63.60
71668;DHT22;59504;54.806;9.640;2023-02-26T04:41:13;-0.40;63.50
71668;DHT22;59504;54.806;9.640;2023-02-26T04:43:27;-0.50;63.60
71668;DHT22;59504;54.806;9.640;2023-02-26T04:45:30;-0.50;63.80
71668;DHT22;59504;54.806;9.640;2023-02-26T04:47:31;-0.40;64.10
71668;DHT22;59504;54.806;9.640;2023-02-26T04:49:32;-0.50;64.00
71668;DHT22;59504;54.806;9.640;2023-02-26T04:51:38;-0.40;64.10
71668;DHT22;59504;54.806;9.640;2023-02-26T04:53:41;-0.40;64.20
71668;DHT22;59504;54.806;9.640;2023-02-26T04:55:42;-0.40;64.30
71668;DHT22;59504;54.806;9.640;2023-02-26T04:57:46;-0.50;64.20
71668;DHT22;59504;54.806;9.640;2023-02-26T04:59:48;-0.50;64.30
71668;DHT22;59504;54.806;9.640;2023-02-26T05:01:49;-0.40;64.40
71668;DHT22;59504;54.806;9.640;2023-02-26T05:03:49;-0.50;64.40
71668;DHT22;59504;54.806;9.640;2023-02-26T05:05:50;-0.40;64.50
71668;DHT22;59504;54.806;9.640;2023-02-26T05:08:11;-0.60;64.50
71668;DHT22;59504;54.806;9.640;2023-02-26T05:10:38;-0.60;64.60
71668;DHT22;59504;54.806;9.640;2023-02-26T05:13:02;-0.50;64.80
71668;DHT22;59504;54.806;9.640;2023-02-26T05:15:23;-0.60;64.80
71668;DHT22;59504;54.806;9.640;2023-02-26T05:17:43;-0.60;65.00
71668;DHT22;59504;54.806;9.640;2023-02-26T05:20:05;-0.50;65.20
71668;DHT22;59504;54.806;9.640;2023-02-26T05:22:07;-0.60;65.40
71668;DHT22;59504;54.806;9.640;2023-02-26T05:24:28;-0.50;65.40
71668;DHT22;59504;54.806;9.640;2023-02-26T05:26:51;-0.50;65.40
71668;DHT22;59504;54.806;9.640;2023-02-26T05:29:15;-0.50;65.50
71668;DHT22;59504;54.806;9.640;2023-02-26T05:31:39;-0.60;65.40
71668;DHT22;59504;54.806;9.640;2023-02-26T05:34:00;-0.60;65.40
71668;DHT22;59504;54.806;9.640;2023-02-26T05:36:20;-0.60;65.40
71668;DHT22;59504;54.806;9.640;2023-02-26T05:38:44;-0.50;65.50
71668;DHT22;59504;54.806;9.640;2023-02-26T05:41:04;-0.60;65.60
71668;DHT22;59504;54.806;9.640;2023-02-26T05:43:05;-0.50;65.60
71668;DHT22;59504;54.806;9.640;2023-02-26T05:45:08;-0.60;65.50
71668;DHT22;59504;54.806;9.640;2023-02-26T05:47:11;-0.60;65.60
71668;DHT22;59504;54.806;9.640;2023-02-26T05:49:18;-0.60;65.60
71668;DHT22;59504;54.806;9.640;2023-02-26T05:51:19;-0.60;65.60
71668;DHT22;59504;54.806;9.640;2023-02-26T05:53:20;-0.60;65.60
71668;DHT22;59504;54.806;9.640;2023-02-26T05:55:21;-0.50;65.70
71668;DHT22;59504;54.806;9.640;2023-02-26T05:57:23;-0.60;65.40
71668;DHT22;59504;54.806;9.640;2023-02-26T05:59:27;-0.50;65.60
71668;DHT22;59504;54.806;9.640;2023-02-26T06:01:28;-0.50;65.70
71668;DHT22;59504;54.806;9.640;2023-02-26T06:03:28;-0.60;65.70
71668;DHT22;59504;54.806;9.640;2023-02-26T06:05:30;-0.70;65.70
71668;DHT22;59504;54.806;9.640;2023-02-26T06:07:32;-0.60;65.80
71668;DHT22;59504;54.806;9.640;2023-02-26T06:09:33;-0.70;65.80
71668;DHT22;59504;54.806;9.640;2023-02-26T06:11:34;-0.60;65.90
71668;DHT22;59504;54.806;9.640;2023-02-26T06:13:37;-0.70;65.90
71668;DHT22;59504;54.806;9.640;2023-02-26T06:15:42;-0.60;66.00
71668;DHT22;59504;54.806;9.640;2023-02-26T06:17:45;-0.60;66.00
71668;DHT22;59504;54.806;9.640;2023-02-26T06:19:46;-0.60;66.00
71668;DHT22;59504;54.806;9.640;2023-02-26T06:21:50;-0.60;66.00
71668;DHT22;59504;54.806;9.640;2023-02-26T06:23:58;-0.70;65.90
71668;DHT22;59504;54.806;9.640;2023-02-26T06:25:58;-0.70;66.00
71668;DHT22;59504;54.806;9.640;2023-02-26T06:27:59;-0.60;66.10
71668;DHT22;59504;54.806;9.640;2023-02-26T06:30:03;-0.70;66.00
71668;DHT22;59504;54.806;9.640;2023-02-26T06:32:10;-0.70;66.10
71668;DHT22;59504;54.806;9.640;2023-02-26T06:34:11;-0.70;66.20
71668;DHT22;59504;54.806;9.640;2023-02-26T06:36:24;-0.70;66.20
71668;DHT22;59504;54.806;9.640;2023-02-26T06:38:26;-0.60;66.40
71668;DHT22;59504;54.806;9.640;2023-02-26T06:40:30;-0.70;66.40
71668;DHT22;59504;54.806;9.640;2023-02-26T06:42:39;-0.70;66.60
71668;DHT22;59504;54.806;9.640;2023-02-26T06:44:59;-0.60;66.80
71668;DHT22;59504;54.806;9.640;2023-02-26T06:47:23;-0.70;66.80
71668;DHT22;59504;54.806;9.640;2023-02-26T06:49:44;-0.60;67.00
71668;DHT22;59504;54.806;9.640;2023-02-26T06:52:04;-0.60;67.20
71668;DHT22;59504;54.806;9.640;2023-02-26T06:54:26;-0.70;67.30
71668;DHT22;59504;54.806;9.640;2023-02-26T06:56:27;-0.60;68.00
71668;DHT22;59504;54.806;9.640;2023-02-26T06:58:36;-0.50;67.30
71668;DHT22;59504;54.806;9.640;2023-02-26T07:00:43;-0.60;67.20
71668;DHT22;59504;54.806;9.640;2023-02-26T07:02:47;-0.50;67.30
71668;DHT22;59504;54.806;9.640;2023-02-26T07:04:48;-0.50;67.30
71668;DHT22;59504;54.806;9.640;2023-02-26T07:06:48;-0.50;67.30
71668;DHT22;59504;54.806;9.640;2023-02-26T07:08:50;-0.50;67.20
71668;DHT22;59504;54.806;9.640;2023-02-26T07:10:57;-0.50;67.20
71668;DHT22;59504;54.806;9.640;2023-02-26T07:13:03;-0.40;67.30
71668;DHT22;59504;54.806;9.640;2023-02-26T07:15:26;-0.40;67.30
71668;DHT22;59504;54.806;9.640;2023-02-26T07:17:49;-0.40;67.30
71668;DHT22;59504;54.806;9.640;2023-02-26T07:19:50;-0.50;67.10
71668;DHT22;59504;54.806;9.640;2023-02-26T07:22:02;-0.30;67.30
71668;DHT22;59504;54.806;9.640;2023-02-26T07:24:23;-0.30;67.20
71668;DHT22;59504;54.806;9.640;2023-02-26T07:26:24;-0.40;67.10
71668;DHT22;59504;54.806;9.640;2023-02-26T07:28:48;-0.30;67.20
71668;DHT22;59504;54.806;9.640;2023-02-26T07:31:09;-0.30;67.60
71668;DHT22;59504;54.806;9.640;2023-02-26T07:33:29;-0.30;67.70
71668;DHT22;59504;54.806;9.640;2023-02-26T07:35:57;-0.30;67.70
71668;DHT22;59504;54.806;9.640;2023-02-26T07:38:29;-0.30;67.80
71668;DHT22;59504;54.806;9.640;2023-02-26T07:40:50;-0.30;67.70
71668;DHT22;59504;54.806;9.640;2023-02-26T07:43:10;-0.20;67.80
71668;DHT22;59504;54.806;9.640;2023-02-26T07:45:31;-0.10;67.90
71668;DHT22;59504;54.806;9.640;2023-02-26T07:47:52;-0.10;67.90
71668;DHT22;59504;54.806;9.640;2023-02-26T07:50:35;-0.10;67.90
71668;DHT22;59504;54.806;9.640;2023-02-26T07:53:02;0.00;67.80
71668;DHT22;59504;54.806;9.640;2023-02-26T07:55:23;0.00;67.80
71668;DHT22;59504;54.806;9.640;2023-02-26T07:57:43;0.00;67.70
71668;DHT22;59504;54.806;9.640;2023-02-26T08:00:05;0.20;67.70
71668;DHT22;59504;54.806;9.640;2023-02-26T08:02:26;0.20;67.70
71668;DHT22;59504;54.806;9.640;2023-02-26T08:04:50;0.20;67.70
71668;DHT22;59504;54.806;9.640;2023-02-26T08:07:32;0.20;67.60
71668;DHT22;59504;54.806;9.640;2023-02-26T08:09:53;0.20;67.70
71668;DHT22;59504;54.806;9.640;2023-02-26T08:12:34;0.30;67.70
71668;DHT22;59504;54.806;9.640;2023-02-26T08:14:36;0.40;67.70
71668;DHT22;59504;54.806;9.640;2023-02-26T08:16:36;0.40;67.60
71668;DHT22;59504;54.806;9.640;2023-02-26T08:18:42;0.50;68.50
71668;DHT22;59504;54.806;9.640;2023-02-26T08:20:43;0.50;67.90
71668;DHT22;59504;54.806;9.640;2023-02-26T08:22:44;0.50;67.60
71668;DHT22;59504;54.806;9.640;2023-02-26T08:24:45;0.50;67.60
71668;DHT22;59504;54.806;9.640;2023-02-26T08:26:48;0.70;67.70
71668;DHT22;59504;54.806;9.640;2023-02-26T08:28:54;0.80;67.80
71668;DHT22;59504;54.806;9.640;2023-02-26T08:31:23;0.70;67.80
71668;DHT22;59504;54.806;9.640;2023-02-26T08:33:28;0.80;67.80
71668;DHT22;59504;54.806;9.640;2023-02-26T08:35:37;0.80;67.80
71668;DHT22;59504;54.806;9.640;2023-02-26T08:38:07;0.80;67.80
71668;DHT22;59504;54.806;9.640;2023-02-26T08:40:12;0.90;67.90
71668;DHT22;59504;54.806;9.640;2023-02-26T08:42:32;0.90;68.00
71668;DHT22;59504;54.806;9.640;2023-02-26T08:44:33;1.10;68.00
71668;DHT22;59504;54.806;9.640;2023-02-26T08:46:44;1.00;68.00
71668;DHT22;59504;54.806;9.640;2023-02-26T08:48:46;1.10;68.00
71668;DHT22;59504;54.806;9.640;2023-02-26T08:50:49;1.30;68.10
71668;DHT22;59504;54.806;9.640;2023-02-26T08:52:53;1.20;68.00
71668;DHT22;59504;54.806;9.640;2023-02-26T08:55:14;1.30;67.90
71668;DHT22;59504;54.806;9.640;2023-02-26T08:57:42;1.30;67.90
71668;DHT22;59504;54.806;9.640;2023-02-26T09:00:04;1.40;67.90
71668;DHT22;59504;54.806;9.640;2023-02-26T09:02:25;1.50;67.90
71668;DHT22;59504;54.806;9.640;2023-02-26T09:04:45;1.60;67.80
71668;DHT22;59504;54.806;9.640;2023-02-26T09:07:06;1.60;67.60
71668;DHT22;59504;54.806;9.640;2023-02-26T09:09:44;1.60;67.70
71668;DHT22;59504;54.806;9.640;2023-02-26T09:12:07;1.70;67.70
71668;DHT22;59504;54.806;9.640;2023-02-26T09:14:34;1.80;67.70
71668;DHT22;59504;54.806;9.640;2023-02-26T09:17:03;1.90;67.40
71668;DHT22;59504;54.806;9.640;2023-02-26T09:19:04;2.10;67.50
71668;DHT22;59504;54.806;9.640;2023-02-26T09:21:05;2.10;67.30
71668;DHT22;59504;54.806;9.640;2023-02-26T09:23:06;2.00;67.10
71668;DHT22;59504;54.806;9.640;2023-02-26T09:25:15;2.20;67.00
71668;DHT22;59504;54.806;9.640;2023-02-26T09:27:18;2.30;66.40
71668;DHT22;59504;54.806;9.640;2023-02-26T09:29:19;2.20;66.40
71668;DHT22;59504;54.806;9.640;2023-02-26T09:31:20;2.30;66.30
71668;DHT22;59504;54.806;9.640;2023-02-26T09:33:54;2.30;66.10
71668;DHT22;59504;54.806;9.640;2023-02-26T09:36:23;2.40;66.00
71668;DHT22;59504;54.806;9.640;2023-02-26T09:38:24;2.60;66.00
71668;DHT22;59504;54.806;9.640;2023-02-26T09:40:56;2.60;65.90
71668;DHT22;59504;54.806;9.640;2023-02-26T09:43:29;2.60;65.70
71668;DHT22;59504;54.806;9.640;2023-02-26T09:45:49;2.70;65.50
71668;DHT22;59504;54.806;9.640;2023-02-26T09:47:54;2.80;65.70
71668;DHT22;59504;54.806;9.640;2023-02-26T09:50:44;2.80;65.50
71668;DHT22;59504;54.806;9.640;2023-02-26T09:53:05;2.90;65.00
71668;DHT22;59504;54.806;9.640;2023-02-26T09:55:18;2.90;64.10
71668;DHT22;59504;54.806;9.640;2023-02-26T09:57:46;3.00;64.10
71668;DHT22;59504;54.806;9.640;2023-02-26T10:00:01;3.10;64.00
71668;DHT22;59504;54.806;9.640;2023-02-26T10:08:03;3.10;63.00
71668;DHT22;59504;54.806;9.640;2023-02-26T10:12:48;3.20;61.20
71668;DHT22;59504;54.806;9.640;2023-02-26T10:19:55;3.30;60.70
71668;DHT22;59504;54.806;9.640;2023-02-26T10:22:02;3.30;60.30
71668;DHT22;59504;54.806;9.640;2023-02-26T10:24:24;3.40;60.10
71668;DHT22;59504;54.806;9.640;2023-02-26T10:26:30;3.50;60.40
71668;DHT22;59504;54.806;9.640;2023-02-26T10:36:29;3.60;60.20
71668;DHT22;59504;54.806;9.640;2023-02-26T10:38:35;3.60;60.20
71668;DHT22;59504;54.806;9.640;2023-02-26T10:41:12;3.70;60.60
71668;DHT22;59504;54.806;9.640;2023-02-26T10:48:54;3.90;59.00
71668;DHT22;59504;54.806;9.640;2023-02-26T10:51:32;3.90;58.80
71668;DHT22;59504;54.806;9.640;2023-02-26T10:53:32;3.90;58.80
71668;DHT22;59504;54.806;9.640;2023-02-26T10:58:11;3.90;57.80
71668;DHT22;59504;54.806;9.640;2023-02-26T11:00:17;3.90;57.80
71668;DHT22;59504;54.806;9.640;2023-02-26T11:02:38;3.90;57.70
71668;DHT22;59504;54.806;9.640;2023-02-26T11:04:45;3.80;57.50
71668;DHT22;59504;54.806;9.640;2023-02-26T11:09:36;3.90;57.80
71668;DHT22;59504;54.806;9.640;2023-02-26T11:12:12;3.90;57.50
71668;DHT22;59504;54.806;9.640;2023-02-26T11:14:20;3.90;57.70
71668;DHT22;59504;54.806;9.640;2023-02-26T11:16:21;3.80;57.60
71668;DHT22;59504;54.806;9.640;2023-02-26T11:18:29;4.00;57.80
71668;DHT22;59504;54.806;9.640;2023-02-26T11:20:36;3.90;57.50
71668;DHT22;59504;54.806;9.640;2023-02-26T11:22:38;4.00;57.50
71668;DHT22;59504;54.806;9.640;2023-02-26T11:24:41;3.90;57.30
71668;DHT22;59504;54.806;9.640;2023-02-26T11:26:48;3.80;57.00
71668;DHT22;59504;54.806;9.640;2023-02-26T11:28:53;3.80;57.20
71668;DHT22;59504;54.806;9.640;2023-02-26T11:30:54;3.80;57.40
71668;DHT22;59504;54.806;9.640;2023-02-26T11:33:19;3.90;57.40
71668;DHT22;59504;54.806;9.640;2023-02-26T11:35:23;3.80;57.20
71668;DHT22;59504;54.806;9.640;2023-02-26T11:37:46;3.90;57.30
71668;DHT22;59504;54.806;9.640;2023-02-26T11:40:12;3.80;56.70
71668;DHT22;59504;54.806;9.640;2023-02-26T11:42:25;3.90;56.90
71668;DHT22;59504;54.806;9.640;2023-02-26T11:44:42;3.90;56.80
71668;DHT22;59504;54.806;9.640;2023-02-26T11:46:55;3.80;57.00
71668;DHT22;59504;54.806;9.640;2023-02-26T11:49:00;3.80;57.40
71668;DHT22;59504;54.806;9.640;2023-02-26T11:51:11;3.90;57.50
71668;DHT22;59504;54.806;9.640;2023-02-26T11:53:23;4.00;56.70
71668;DHT22;59504;54.806;9.640;2023-02-26T11:55:38;4.00;56.00
71668;DHT22;59504;54.806;9.640;2023-02-26T11:57:52;4.00;55.80
71668;DHT22;59504;54.806;9.640;2023-02-26T11:59:54;4.00;54.90
71668;DHT22;59504;54.806;9.640;2023-02-26T12:01:55;4.00;54.00
71668;DHT22;59504;54.806;9.640;2023-02-26T12:04:01;4.10;53.90
71668;DHT22;59504;54.806;9.640;2023-02-26T12:06:13;4.10;53.20
71668;DHT22;59504;54.806;9.640;2023-02-26T12:08:31;4.10;52.50
71668;DHT22;59504;54.806;9.640;2023-02-26T12:10:46;4.10;53.10
71668;DHT22;59504;54.806;9.640;2023-02-26T12:13:06;4.10;53.60
71668;DHT22;59504;54.806;9.640;2023-02-26T12:15:28;4.00;53.40
71668;DHT22;59504;54.806;9.640;2023-02-26T12:17:49;4.00;53.80
71668;DHT22;59504;54.806;9.640;2023-02-26T12:22:18;3.90;53.60
71668;DHT22;59504;54.806;9.640;2023-02-26T12:24:47;3.90;53.60
71668;DHT22;59504;54.806;9.640;2023-02-26T12:27:07;3.90;54.00
71668;DHT22;59504;54.806;9.640;2023-02-26T12:32:11;4.00;54.00
71668;DHT22;59504;54.806;9.640;2023-02-26T12:37:38;4.00;54.30
71668;DHT22;59504;54.806;9.640;2023-02-26T12:40:32;4.10;54.40
71668;DHT22;59504;54.806;9.640;2023-02-26T12:43:06;4.10;54.00
71668;DHT22;59504;54.806;9.640;2023-02-26T12:45:29;4.00;53.00
71668;DHT22;59504;54.806;9.640;2023-02-26T12:54:10;4.20;53.00
71668;DHT22;59504;54.806;9.640;2023-02-26T13:03:38;4.10;52.90
71668;DHT22;59504;54.806;9.640;2023-02-26T13:08:10;4.30;52.80
71668;DHT22;59504;54.806;9.640;2023-02-26T13:17:41;4.30;54.30
71668;DHT22;59504;54.806;9.640;2023-02-26T13:19:47;4.30;54.10
71668;DHT22;59504;54.806;9.640;2023-02-26T13:21:55;4.30;54.00
71668;DHT22;59504;54.806;9.640;2023-02-26T13:26:16;4.20;54.10
71668;DHT22;59504;54.806;9.640;2023-02-26T13:30:47;4.20;54.50
71668;DHT22;59504;54.806;9.640;2023-02-26T13:32:52;4.30;54.70
71668;DHT22;59504;54.806;9.640;2023-02-26T13:34:58;4.30;54.70
71668;DHT22;59504;54.806;9.640;2023-02-26T13:37:04;4.30;54.90
71668;DHT22;59504;54.806;9.640;2023-02-26T13:46:54;4.30;54.40
71668;DHT22;59504;54.806;9.640;2023-02-26T13:51:08;4.40;54.20
71668;DHT22;59504;54.806;9.640;2023-02-26T13:55:45;4.40;54.10
71668;DHT22;59504;54.806;9.640;2023-02-26T13:57:52;4.30;53.80
71668;DHT22;59504;54.806;9.640;2023-02-26T14:00:07;4.40;53.60
71668;DHT22;59504;54.806;9.640;2023-02-26T14:04:57;4.30;53.30
71668;DHT22;59504;54.806;9.640;2023-02-26T14:07:53;4.40;53.60
71668;DHT22;59504;54.806;9.640;2023-02-26T14:13:09;4.20;54.10
71668;DHT22;59504;54.806;9.640;2023-02-26T14:20:39;4.20;52.70
71668;DHT22;59504;54.806;9.640;2023-02-26T14:22:51;4.30;53.20
71668;DHT22;59504;54.806;9.640;2023-02-26T14:27:42;4.30;53.40
71668;DHT22;59504;54.806;9.640;2023-02-26T14:30:02;4.40;53.00
71668;DHT22;59504;54.806;9.640;2023-02-26T14:36:35;4.30;52.30
71668;DHT22;59504;54.806;9.640;2023-02-26T14:38:39;4.20;52.10
71668;DHT22;59504;54.806;9.640;2023-02-26T14:40:53;4.10;52.60
71668;DHT22;59504;54.806;9.640;2023-02-26T14:42:59;4.20;52.90
71668;DHT22;59504;54.806;9.640;2023-02-26T14:47:23;4.20;52.80
71668;DHT22;59504;54.806;9.640;2023-02-26T14:49:44;4.30;52.50
71668;DHT22;59504;54.806;9.640;2023-02-26T15:07:01;4.20;52.70
71668;DHT22;59504;54.806;9.640;2023-02-26T15:12:04;4.20;53.00
71668;DHT22;59504;54.806;9.640;2023-02-26T15:14:15;4.20;52.60
71668;DHT22;59504;54.806;9.640;2023-02-26T15:17:00;4.20;52.70
71668;DHT22;59504;54.806;9.640;2023-02-26T15:19:15;4.20;53.40
71668;DHT22;59504;54.806;9.640;2023-02-26T15:22:07;4.20;53.60
71668;DHT22;59504;54.806;9.640;2023-02-26T15:24:15;4.30;53.80
71668;DHT22;59504;54.806;9.640;2023-02-26T15:26:48;4.30;54.00
71668;DHT22;59504;54.806;9.640;2023-02-26T15:28:53;4.20;54.00
71668;DHT22;59504;54.806;9.640;2023-02-26T15:30:55;4.20;54.10
71668;DHT22;59504;54.806;9.640;2023-02-26T15:33:03;4.20;53.70
71668;DHT22;59504;54.806;9.640;2023-02-26T15:35:18;4.20;53.80
71668;DHT22;59504;54.806;9.640;2023-02-26T15:37:32;4.10;54.00
71668;DHT22;59504;54.806;9.640;2023-02-26T15:39:33;4.10;54.00
71668;DHT22;59504;54.806;9.640;2023-02-26T15:41:39;4.20;54.00
71668;DHT22;59504;54.806;9.640;2023-02-26T15:43:47;4.20;53.90
71668;DHT22;59504;54.806;9.640;2023-02-26T15:45:52;4.10;53.80
71668;DHT22;59504;54.806;9.640;2023-02-26T15:48:35;4.20;54.00
71668;DHT22;59504;54.806;9.640;2023-02-26T15:50:45;4.10;54.00
71668;DHT22;59504;54.806;9.640;2023-02-26T15:52:52;4.20;54.00
71668;DHT22;59504;54.806;9.640;2023-02-26T15:55:03;4.20;53.90
71668;DHT22;59504;54.806;9.640;2023-02-26T15:57:46;4.10;54.10
71668;DHT22;59504;54.806;9.640;2023-02-26T16:00:05;4.00;54.40
71668;DHT22;59504;54.806;9.640;2023-02-26T16:02:21;4.10;54.60
71668;DHT22;59504;54.806;9.640;2023-02-26T16:04:29;3.90;54.80
71668;DHT22;59504;54.806;9.640;2023-02-26T16:06:39;4.10;54.90
71668;DHT22;59504;54.806;9.640;2023-02-26T16:08:40;4.00;54.70
71668;DHT22;59504;54.806;9.640;2023-02-26T16:10:42;4.00;54.60
71668;DHT22;59504;54.806;9.640;2023-02-26T16:13:01;3.90;54.60
71668;DHT22;59504;54.806;9.640;2023-02-26T16:15:05;4.00;54.30
71668;DHT22;59504;54.806;9.640;2023-02-26T16:17:29;3.90;54.40
71668;DHT22;59504;54.806;9.640;2023-02-26T16:19:46;3.90;54.40
71668;DHT22;59504;54.806;9.640;2023-02-26T16:22:04;3.90;54.60
71668;DHT22;59504;54.806;9.640;2023-02-26T16:24:32;3.90;54.70
71668;DHT22;59504;54.806;9.640;2023-02-26T16:26:52;3.80;54.20
71668;DHT22;59504;54.806;9.640;2023-02-26T16:29:23;3.80;54.70
71668;DHT22;59504;54.806;9.640;2023-02-26T16:31:34;3.80;54.80
71668;DHT22;59504;54.806;9.640;2023-02-26T16:33:39;3.90;55.20
71668;DHT22;59504;54.806;9.640;2023-02-26T16:36:22;3.70;56.20
71668;DHT22;59504;54.806;9.640;2023-02-26T16:38:26;3.70;56.00
71668;DHT22;59504;54.806;9.640;2023-02-26T16:40:43;3.80;55.90
71668;DHT22;59504;54.806;9.640;2023-02-26T16:42:55;3.70;55.80
71668;DHT22;59504;54.806;9.640;2023-02-26T16:45:24;3.70;55.70
71668;DHT22;59504;54.806;9.640;2023-02-26T16:47:42;3.70;55.70
71668;DHT22;59504;54.806;9.640;2023-02-26T16:50:07;3.70;55.70
71668;DHT22;59504;54.806;9.640;2023-02-26T16:52:16;3.60;55.70
71668;DHT22;59504;54.806;9.640;2023-02-26T16:54:24;3.60;55.70
71668;DHT22;59504;54.806;9.640;2023-02-26T16:56:41;3.50;55.80
71668;DHT22;59504;54.806;9.640;2023-02-26T17:01:28;3.50;55.90
71668;DHT22;59504;54.806;9.640;2023-02-26T17:03:33;3.50;55.90